sensor_id;sensor_type;location;lat;lon;timestamp;temperature;humidity
2897;DHT22;1458;49.728;9.228;2023-04-03T00:00:58;2.20;99.90
2897;DHT22;1458;49.728;9.228;2023-04-03T00:03:25;2.20;99.90
2897;DHT22;1458;49.728;9.228;2023-04-03T00:05:53;2.00;99.90
2897;DHT22;1458;49.728;9.228;2023-04-03T00:08:20;2.00;99.90
2897;DHT22;1458;49.728;9.228;2023-04-03T00:10:48;1.90;99.90
2897;DHT22;1458;49.728;9.228;2023-04-03T00:13:17;2.00;99.90
2897;DHT22;1458;49.728;9.228;2023-04-03T00:15:45;1.90;99.90
2897;DHT22;1458;49.728;9.228;2023-04-03T00:18:12;2.00;99.90
2897;DHT22;1458;49.728;9.228;2023-04-03T00:20:40;1.90;99.90
2897;DHT22;1458;49.728;9.228;2023-04-03T00:23:07;1.90;99.90
2897;DHT22;1458;49.728;9.228;2023-04-03T00:25:35;1.90;99.90
2897;DHT22;1458;49.728;9.228;2023-04-03T00:28:03;1.90;99.90
2897;DHT22;1458;49.728;9.228;2023-04-03T00:30:32;1.80;99.90
2897;DHT22;1458;49.728;9.228;2023-04-03T00:33:00;1.70;99.90
2897;DHT22;1458;49.728;9.228;2023-04-03T00:35:28;1.70;99.90
2897;DHT22;1458;49.728;9.228;2023-04-03T00:37:56;1.60;99.90
2897;DHT22;1458;49.728;9.228;2023-04-03T00:40:24;1.50;99.90
2897;DHT22;1458;49.728;9.228;2023-04-03T00:42:57;1.60;99.90
2897;DHT22;1458;49.728;9.228;2023-04-03T00:45:38;1.40;99.90
2897;DHT22;1458;49.728;9.228;2023-04-03T00:48:09;1.40;99.90
2897;DHT22;1458;49.728;9.228;2023-04-03T00:50:40;1.30;99.90
2897;DHT22;1458;49.728;9.228;2023-04-03T00:53:11;1.30;99.90
2897;DHT22;1458;49.728;9.228;2023-04-03T00:55:41;1.30;99.90
2897;DHT22;1458;49.728;9.228;2023-04-03T00:58:10;1.20;99.90
2897;DHT22;1458;49.728;9.228;2023-04-03T01:00:43;1.10;99.90
2897;DHT22;1458;49.728;9.228;2023-04-03T01:03:13;1.20;99.90
2897;DHT22;1458;49.728;9.228;2023-04-03T01:05:41;1.20;99.90
2897;DHT22;1458;49.728;9.228;2023-04-03T01:08:08;1.30;99.90
2897;DHT22;1458;49.728;9.228;2023-04-03T01:10:36;1.20;99.90
2897;DHT22;1458;49.728;9.228;2023-04-03T01:13:18;1.20;99.90
2897;DHT22;1458;49.728;9.228;2023-04-03T01:15:52;1.20;99.90
2897;DHT22;1458;49.728;9.228;2023-04-03T01:18:20;1.10;99.90
2897;DHT22;1458;49.728;9.228;2023-04-03T01:24:31;0.90;99.90
2897;DHT22;1458;49.728;9.228;2023-04-03T01:27:03;1.00;99.90
2897;DHT22;1458;49.728;9.228;2023-04-03T01:29:33;1.20;99.90
2897;DHT22;1458;49.728;9.228;2023-04-03T01:32:02;1.40;99.90
2897;DHT22;1458;49.728;9.228;2023-04-03T01:34:31;1.40;99.90
2897;DHT22;1458;49.728;9.228;2023-04-03T01:36:59;1.30;99.90
2897;DHT22;1458;49.728;9.228;2023-04-03T01:39:27;1.10;99.90
2897;DHT22;1458;49.728;9.228;2023-04-03T01:41:56;0.90;99.90
2897;DHT22;1458;49.728;9.228;2023-04-03T01:44:34;0.80;99.90
2897;DHT22;1458;49.728;9.228;2023-04-03T01:47:05;0.90;99.90
2897;DHT22;1458;49.728;9.228;2023-04-03T01:49:34;0.80;99.90
2897;DHT22;1458;49.728;9.228;2023-04-03T01:52:01;0.90;99.90
2897;DHT22;1458;49.728;9.228;2023-04-03T01:54:29;1.00;99.90
2897;DHT22;1458;49.728;9.228;2023-04-03T01:56:56;1.20;99.90
2897;DHT22;1458;49.728;9.228;2023-04-03T01:59:24;1.20;99.90
2897;DHT22;1458;49.728;9.228;2023-04-03T02:01:52;1.10;99.90
2897;DHT22;1458;49.728;9.228;2023-04-03T02:04:20;0.90;99.90
2897;DHT22;1458;49.728;9.228;2023-04-03T02:06:48;0.80;99.90
2897;DHT22;1458;49.728;9.228;2023-04-03T02:09:16;0.70;99.90
2897;DHT22;1458;49.728;9.228;2023-04-03T02:11:43;0.70;99.90
2897;DHT22;1458;49.728;9.228;2023-04-03T02:14:11;0.70;99.90
2897;DHT22;1458;49.728;9.228;2023-04-03T02:16:39;0.70;99.90
2897;DHT22;1458;49.728;9.228;2023-04-03T02:19:06;0.70;99.90
2897;DHT22;1458;49.728;9.228;2023-04-03T02:21:35;0.50;99.90
2897;DHT22;1458;49.728;9.228;2023-04-03T02:24:03;0.50;99.90
2897;DHT22;1458;49.728;9.228;2023-04-03T02:26:31;0.50;99.90
2897;DHT22;1458;49.728;9.228;2023-04-03T02:28:59;0.60;99.90
2897;DHT22;1458;49.728;9.228;2023-04-03T02:31:26;0.50;99.90
2897;DHT22;1458;49.728;9.228;2023-04-03T02:33:54;0.50;99.90
2897;DHT22;1458;49.728;9.228;2023-04-03T02:36:22;0.30;99.90
2897;DHT22;1458;49.728;9.228;2023-04-03T02:38:55;0.30;99.90
2897;DHT22;1458;49.728;9.228;2023-04-03T02:41:23;0.20;99.90
2897;DHT22;1458;49.728;9.228;2023-04-03T02:43:51;0.20;99.90
2897;DHT22;1458;49.728;9.228;2023-04-03T02:46:19;0.20;99.90
2897;DHT22;1458;49.728;9.228;2023-04-03T02:48:46;0.30;99.90
2897;DHT22;1458;49.728;9.228;2023-04-03T02:51:14;0.50;99.90
2897;DHT22;1458;49.728;9.228;2023-04-03T02:53:42;0.50;99.90
2897;DHT22;1458;49.728;9.228;2023-04-03T02:56:16;0.50;99.90
2897;DHT22;1458;49.728;9.228;2023-04-03T02:58:44;0.40;99.90
2897;DHT22;1458;49.728;9.228;2023-04-03T03:01:11;0.70;99.90
2897;DHT22;1458;49.728;9.228;2023-04-03T03:03:40;0.80;99.90
2897;DHT22;1458;49.728;9.228;2023-04-03T03:06:09;0.90;99.90
2897;DHT22;1458;49.728;9.228;2023-04-03T03:08:39;0.90;99.90
2897;DHT22;1458;49.728;9.228;2023-04-03T03:11:06;0.80;99.90
2897;DHT22;1458;49.728;9.228;2023-04-03T03:13:35;0.70;99.90
2897;DHT22;1458;49.728;9.228;2023-04-03T03:16:04;0.60;99.90
2897;DHT22;1458;49.728;9.228;2023-04-03T03:18:32;0.70;99.90
2897;DHT22;1458;49.728;9.228;2023-04-03T03:21:01;0.70;99.90
2897;DHT22;1458;49.728;9.228;2023-04-03T03:23:31;0.50;99.90
2897;DHT22;1458;49.728;9.228;2023-04-03T03:26:00;0.40;99.90
2897;DHT22;1458;49.728;9.228;2023-04-03T03:28:29;0.30;99.90
2897;DHT22;1458;49.728;9.228;2023-04-03T03:30:59;0.60;99.90
2897;DHT22;1458;49.728;9.228;2023-04-03T03:33:26;0.40;99.90
2897;DHT22;1458;49.728;9.228;2023-04-03T03:35:54;0.30;99.90
2897;DHT22;1458;49.728;9.228;2023-04-03T03:38:22;0.20;99.90
2897;DHT22;1458;49.728;9.228;2023-04-03T03:40:50;0.10;99.90
2897;DHT22;1458;49.728;9.228;2023-04-03T03:43:19;0.10;99.90
2897;DHT22;1458;49.728;9.228;2023-04-03T03:45:50;0.10;99.90
2897;DHT22;1458;49.728;9.228;2023-04-03T03:48:20;0.00;99.90
2897;DHT22;1458;49.728;9.228;2023-04-03T03:50:48;0.00;99.90
2897;DHT22;1458;49.728;9.228;2023-04-03T03:53:18;0.20;99.90
2897;DHT22;1458;49.728;9.228;2023-04-03T03:55:46;0.10;99.90
2897;DHT22;1458;49.728;9.228;2023-04-03T03:58:14;0.00;99.90
2897;DHT22;1458;49.728;9.228;2023-04-03T04:00:41;-0.10;99.90
2897;DHT22;1458;49.728;9.228;2023-04-03T04:03:10;-0.10;99.90
2897;DHT22;1458;49.728;9.228;2023-04-03T04:05:39;-0.20;99.90
2897;DHT22;1458;49.728;9.228;2023-04-03T04:08:06;-0.20;99.90
2897;DHT22;1458;49.728;9.228;2023-04-03T04:10:34;-0.30;99.90
2897;DHT22;1458;49.728;9.228;2023-04-03T04:13:02;-0.20;99.90
2897;DHT22;1458;49.728;9.228;2023-04-03T04:15:30;-0.20;99.90
2897;DHT22;1458;49.728;9.228;2023-04-03T04:18:01;-0.10;99.90
2897;DHT22;1458;49.728;9.228;2023-04-03T04:20:29;-0.20;99.90
2897;DHT22;1458;49.728;9.228;2023-04-03T04:22:58;-0.20;99.90
2897;DHT22;1458;49.728;9.228;2023-04-03T04:25:26;-0.30;99.90
2897;DHT22;1458;49.728;9.228;2023-04-03T04:27:54;-0.30;99.90
2897;DHT22;1458;49.728;9.228;2023-04-03T04:30:22;-0.30;99.90
2897;DHT22;1458;49.728;9.228;2023-04-03T04:32:50;-0.30;99.90
2897;DHT22;1458;49.728;9.228;2023-04-03T04:35:18;-0.10;99.90
2897;DHT22;1458;49.728;9.228;2023-04-03T04:37:48;0.00;99.90
2897;DHT22;1458;49.728;9.228;2023-04-03T04:40:18;0.10;99.90
2897;DHT22;1458;49.728;9.228;2023-04-03T04:42:46;0.10;99.90
2897;DHT22;1458;49.728;9.228;2023-04-03T04:45:13;0.10;99.90
2897;DHT22;1458;49.728;9.228;2023-04-03T04:47:43;0.00;99.90
2897;DHT22;1458;49.728;9.228;2023-04-03T04:50:11;0.10;99.90
2897;DHT22;1458;49.728;9.228;2023-04-03T04:52:39;0.30;99.90
2897;DHT22;1458;49.728;9.228;2023-04-03T04:55:08;0.30;99.90
2897;DHT22;1458;49.728;9.228;2023-04-03T04:57:37;0.30;99.90
2897;DHT22;1458;49.728;9.228;2023-04-03T05:00:06;0.40;99.90
2897;DHT22;1458;49.728;9.228;2023-04-03T05:02:34;0.40;99.90
2897;DHT22;1458;49.728;9.228;2023-04-03T05:05:02;0.30;99.90
2897;DHT22;1458;49.728;9.228;2023-04-03T05:07:31;0.30;99.90
2897;DHT22;1458;49.728;9.228;2023-04-03T05:09:59;0.50;99.90
2897;DHT22;1458;49.728;9.228;2023-04-03T05:12:27;0.50;99.90
2897;DHT22;1458;49.728;9.228;2023-04-03T05:15:00;0.50;99.90
2897;DHT22;1458;49.728;9.228;2023-04-03T05:17:30;0.50;99.90
2897;DHT22;1458;49.728;9.228;2023-04-03T05:20:00;0.40;99.90
2897;DHT22;1458;49.728;9.228;2023-04-03T05:22:28;0.40;99.90
2897;DHT22;1458;49.728;9.228;2023-04-03T05:25:02;0.40;99.90
2897;DHT22;1458;49.728;9.228;2023-04-03T05:27:30;0.40;99.90
2897;DHT22;1458;49.728;9.228;2023-04-03T05:30:00;0.40;99.90
2897;DHT22;1458;49.728;9.228;2023-04-03T05:32:29;0.60;99.90
2897;DHT22;1458;49.728;9.228;2023-04-03T05:35:11;0.90;99.90
2897;DHT22;1458;49.728;9.228;2023-04-03T05:37:40;1.10;99.90
2897;DHT22;1458;49.728;9.228;2023-04-03T05:40:09;1.10;99.90
2897;DHT22;1458;49.728;9.228;2023-04-03T05:42:40;1.10;99.90
2897;DHT22;1458;49.728;9.228;2023-04-03T05:45:10;1.00;99.90
2897;DHT22;1458;49.728;9.228;2023-04-03T05:47:38;0.90;99.90
2897;DHT22;1458;49.728;9.228;2023-04-03T05:50:10;1.00;99.90
2897;DHT22;1458;49.728;9.228;2023-04-03T05:52:41;0.80;99.90
2897;DHT22;1458;49.728;9.228;2023-04-03T05:55:10;0.90;99.90
2897;DHT22;1458;49.728;9.228;2023-04-03T05:57:37;0.90;99.90
2897;DHT22;1458;49.728;9.228;2023-04-03T06:00:06;0.80;99.90
2897;DHT22;1458;49.728;9.228;2023-04-03T06:02:42;0.80;99.90
2897;DHT22;1458;49.728;9.228;2023-04-03T06:05:16;0.70;99.90
2897;DHT22;1458;49.728;9.228;2023-04-03T06:07:45;0.80;99.90
2897;DHT22;1458;49.728;9.228;2023-04-03T06:10:15;0.80;99.90
2897;DHT22;1458;49.728;9.228;2023-04-03T06:12:44;0.90;99.90
2897;DHT22;1458;49.728;9.228;2023-04-03T06:15:13;1.10;99.90
2897;DHT22;1458;49.728;9.228;2023-04-03T06:17:42;1.30;99.90
2897;DHT22;1458;49.728;9.228;2023-04-03T06:20:11;1.90;99.90
2897;DHT22;1458;49.728;9.228;2023-04-03T06:22:39;2.50;99.90
2897;DHT22;1458;49.728;9.228;2023-04-03T06:25:08;2.90;99.90
2897;DHT22;1458;49.728;9.228;2023-04-03T06:27:36;3.30;99.90
2897;DHT22;1458;49.728;9.228;2023-04-03T06:30:05;3.50;99.90
2897;DHT22;1458;49.728;9.228;2023-04-03T06:32:35;3.70;99.90
2897;DHT22;1458;49.728;9.228;2023-04-03T06:35:03;4.00;99.90
2897;DHT22;1458;49.728;9.228;2023-04-03T06:37:31;4.20;99.90
2897;DHT22;1458;49.728;9.228;2023-04-03T06:39:59;4.20;99.90
2897;DHT22;1458;49.728;9.228;2023-04-03T06:42:27;4.20;99.90
2897;DHT22;1458;49.728;9.228;2023-04-03T06:45:00;4.40;99.90
2897;DHT22;1458;49.728;9.228;2023-04-03T06:47:28;4.40;99.90
2897;DHT22;1458;49.728;9.228;2023-04-03T06:49:57;4.30;99.90
2897;DHT22;1458;49.728;9.228;2023-04-03T06:52:24;4.60;99.90
2897;DHT22;1458;49.728;9.228;2023-04-03T06:54:52;4.90;99.90
2897;DHT22;1458;49.728;9.228;2023-04-03T06:57:23;5.10;99.90
2897;DHT22;1458;49.728;9.228;2023-04-03T06:59:51;5.80;99.40
2897;DHT22;1458;49.728;9.228;2023-04-03T07:02:19;6.30;92.60
2897;DHT22;1458;49.728;9.228;2023-04-03T07:04:46;7.00;93.30
2897;DHT22;1458;49.728;9.228;2023-04-03T07:07:15;7.30;88.50
2897;DHT22;1458;49.728;9.228;2023-04-03T07:09:43;6.80;86.10
2897;DHT22;1458;49.728;9.228;2023-04-03T07:12:12;6.50;84.90
2897;DHT22;1458;49.728;9.228;2023-04-03T07:14:40;6.20;85.00
2897;DHT22;1458;49.728;9.228;2023-04-03T07:17:08;6.10;84.70
2897;DHT22;1458;49.728;9.228;2023-04-03T07:19:35;6.20;86.30
2897;DHT22;1458;49.728;9.228;2023-04-03T07:22:03;6.30;81.80
2897;DHT22;1458;49.728;9.228;2023-04-03T07:24:32;6.10;85.00
2897;DHT22;1458;49.728;9.228;2023-04-03T07:27:00;6.20;78.80
2897;DHT22;1458;49.728;9.228;2023-04-03T07:29:28;6.40;81.40
2897;DHT22;1458;49.728;9.228;2023-04-03T07:31:56;6.60;82.60
2897;DHT22;1458;49.728;9.228;2023-04-03T07:34:24;6.40;79.70
2897;DHT22;1458;49.728;9.228;2023-04-03T07:36:51;6.50;76.40
2897;DHT22;1458;49.728;9.228;2023-04-03T07:39:19;6.60;76.80
2897;DHT22;1458;49.728;9.228;2023-04-03T07:41:47;6.60;78.10
2897;DHT22;1458;49.728;9.228;2023-04-03T07:44:15;6.70;74.30
2897;DHT22;1458;49.728;9.228;2023-04-03T07:46:42;6.80;73.10
2897;DHT22;1458;49.728;9.228;2023-04-03T07:49:10;6.80;74.10
2897;DHT22;1458;49.728;9.228;2023-04-03T07:51:38;6.90;73.40
2897;DHT22;1458;49.728;9.228;2023-04-03T07:54:05;6.80;70.40
2897;DHT22;1458;49.728;9.228;2023-04-03T07:56:33;6.70;70.00
2897;DHT22;1458;49.728;9.228;2023-04-03T07:59:02;6.80;69.40
2897;DHT22;1458;49.728;9.228;2023-04-03T08:01:30;7.00;71.30
2897;DHT22;1458;49.728;9.228;2023-04-03T08:03:59;7.00;69.10
2897;DHT22;1458;49.728;9.228;2023-04-03T08:06:26;6.80;69.80
2897;DHT22;1458;49.728;9.228;2023-04-03T08:08:58;6.90;67.40
2897;DHT22;1458;49.728;9.228;2023-04-03T08:11:26;6.90;67.80
2897;DHT22;1458;49.728;9.228;2023-04-03T08:13:53;6.80;69.20
2897;DHT22;1458;49.728;9.228;2023-04-03T08:16:24;6.80;67.00
2897;DHT22;1458;49.728;9.228;2023-04-03T08:18:52;6.70;68.20
2897;DHT22;1458;49.728;9.228;2023-04-03T08:21:21;6.90;68.40
2897;DHT22;1458;49.728;9.228;2023-04-03T08:23:49;7.00;66.20
2897;DHT22;1458;49.728;9.228;2023-04-03T08:26:19;6.80;64.60
2897;DHT22;1458;49.728;9.228;2023-04-03T08:28:48;6.80;66.50
2897;DHT22;1458;49.728;9.228;2023-04-03T08:31:17;6.70;66.00
2897;DHT22;1458;49.728;9.228;2023-04-03T08:33:47;6.80;66.40
2897;DHT22;1458;49.728;9.228;2023-04-03T08:36:19;6.90;67.50
2897;DHT22;1458;49.728;9.228;2023-04-03T08:38:48;7.10;70.00
2897;DHT22;1458;49.728;9.228;2023-04-03T08:41:20;7.10;62.30
2897;DHT22;1458;49.728;9.228;2023-04-03T08:44:02;7.00;63.10
2897;DHT22;1458;49.728;9.228;2023-04-03T08:46:44;7.00;62.10
2897;DHT22;1458;49.728;9.228;2023-04-03T08:49:24;6.80;63.20
2897;DHT22;1458;49.728;9.228;2023-04-03T08:51:55;6.90;63.20
2897;DHT22;1458;49.728;9.228;2023-04-03T08:54:35;7.00;61.90
2897;DHT22;1458;49.728;9.228;2023-04-03T08:57:09;7.10;62.90
2897;DHT22;1458;49.728;9.228;2023-04-03T08:59:39;7.10;62.20
2897;DHT22;1458;49.728;9.228;2023-04-03T09:02:23;7.20;63.10
2897;DHT22;1458;49.728;9.228;2023-04-03T09:04:55;7.10;60.10
2897;DHT22;1458;49.728;9.228;2023-04-03T09:07:27;7.10;60.30
2897;DHT22;1458;49.728;9.228;2023-04-03T09:10:01;7.30;61.60
2897;DHT22;1458;49.728;9.228;2023-04-03T09:12:34;7.40;61.40
2897;DHT22;1458;49.728;9.228;2023-04-03T09:15:13;7.10;58.80
2897;DHT22;1458;49.728;9.228;2023-04-03T09:17:53;7.00;58.70
2897;DHT22;1458;49.728;9.228;2023-04-03T09:20:32;7.00;63.10
2897;DHT22;1458;49.728;9.228;2023-04-03T09:23:15;7.10;61.00
2897;DHT22;1458;49.728;9.228;2023-04-03T09:25:46;6.80;59.50
2897;DHT22;1458;49.728;9.228;2023-04-03T09:28:15;7.10;61.30
2897;DHT22;1458;49.728;9.228;2023-04-03T09:30:42;6.70;61.40
2897;DHT22;1458;49.728;9.228;2023-04-03T09:33:11;6.50;60.90
2897;DHT22;1458;49.728;9.228;2023-04-03T09:35:41;6.50;59.80
2897;DHT22;1458;49.728;9.228;2023-04-03T09:38:19;6.90;62.00
2897;DHT22;1458;49.728;9.228;2023-04-03T09:40:49;7.10;65.30
2897;DHT22;1458;49.728;9.228;2023-04-03T09:43:27;7.20;61.70
2897;DHT22;1458;49.728;9.228;2023-04-03T09:46:15;6.80;60.00
2897;DHT22;1458;49.728;9.228;2023-04-03T09:48:51;6.80;61.60
2897;DHT22;1458;49.728;9.228;2023-04-03T09:51:25;6.90;62.20
2897;DHT22;1458;49.728;9.228;2023-04-03T09:53:54;6.70;60.70
2897;DHT22;1458;49.728;9.228;2023-04-03T09:56:25;6.70;60.00
2897;DHT22;1458;49.728;9.228;2023-04-03T09:59:08;6.60;60.60
2897;DHT22;1458;49.728;9.228;2023-04-03T10:01:43;6.30;60.90
2897;DHT22;1458;49.728;9.228;2023-04-03T10:04:25;6.20;62.20
2897;DHT22;1458;49.728;9.228;2023-04-03T10:06:55;6.50;63.20
2897;DHT22;1458;49.728;9.228;2023-04-03T10:09:25;6.90;60.50
2897;DHT22;1458;49.728;9.228;2023-04-03T10:12:01;7.10;61.50
2897;DHT22;1458;49.728;9.228;2023-04-03T10:14:31;7.10;59.60
2897;DHT22;1458;49.728;9.228;2023-04-03T10:17:14;7.10;58.40
2897;DHT22;1458;49.728;9.228;2023-04-03T10:19:48;7.00;57.30
2897;DHT22;1458;49.728;9.228;2023-04-03T10:22:28;6.80;60.00
2897;DHT22;1458;49.728;9.228;2023-04-03T10:25:12;6.80;61.60
2897;DHT22;1458;49.728;9.228;2023-04-03T10:27:52;7.00;60.20
2897;DHT22;1458;49.728;9.228;2023-04-03T10:30:32;7.10;57.60
2897;DHT22;1458;49.728;9.228;2023-04-03T10:33:11;7.10;58.90
2897;DHT22;1458;49.728;9.228;2023-04-03T10:35:54;7.20;59.30
2897;DHT22;1458;49.728;9.228;2023-04-03T10:38:40;7.30;57.10
2897;DHT22;1458;49.728;9.228;2023-04-03T10:41:15;7.60;54.90
2897;DHT22;1458;49.728;9.228;2023-04-03T10:43:52;7.70;52.30
2897;DHT22;1458;49.728;9.228;2023-04-03T10:46:28;7.90;52.80
2897;DHT22;1458;49.728;9.228;2023-04-03T10:49:10;8.00;50.30
2897;DHT22;1458;49.728;9.228;2023-04-03T10:51:45;7.90;50.80
2897;DHT22;1458;49.728;9.228;2023-04-03T10:54:23;7.90;52.50
2897;DHT22;1458;49.728;9.228;2023-04-03T10:56:54;8.00;52.00
2897;DHT22;1458;49.728;9.228;2023-04-03T10:59:26;7.90;51.40
2897;DHT22;1458;49.728;9.228;2023-04-03T11:02:00;7.30;54.00
2897;DHT22;1458;49.728;9.228;2023-04-03T11:04:35;7.20;52.60
2897;DHT22;1458;49.728;9.228;2023-04-03T11:07:10;7.20;55.50
2897;DHT22;1458;49.728;9.228;2023-04-03T11:09:46;7.40;53.50
2897;DHT22;1458;49.728;9.228;2023-04-03T11:12:18;7.40;54.20
2897;DHT22;1458;49.728;9.228;2023-04-03T11:14:50;7.40;51.00
2897;DHT22;1458;49.728;9.228;2023-04-03T11:17:26;7.30;51.70
2897;DHT22;1458;49.728;9.228;2023-04-03T11:20:02;7.50;49.60
2897;DHT22;1458;49.728;9.228;2023-04-03T11:22:35;7.90;53.60
2897;DHT22;1458;49.728;9.228;2023-04-03T11:25:15;7.90;48.00
2897;DHT22;1458;49.728;9.228;2023-04-03T11:27:50;7.70;48.80
2897;DHT22;1458;49.728;9.228;2023-04-03T11:30:24;7.60;49.80
2897;DHT22;1458;49.728;9.228;2023-04-03T11:33:09;7.30;50.30
2897;DHT22;1458;49.728;9.228;2023-04-03T11:35:44;7.40;52.10
2897;DHT22;1458;49.728;9.228;2023-04-03T11:38:18;7.60;51.80
2897;DHT22;1458;49.728;9.228;2023-04-03T11:40:50;7.50;47.70
2897;DHT22;1458;49.728;9.228;2023-04-03T11:43:24;7.60;48.20
2897;DHT22;1458;49.728;9.228;2023-04-03T11:45:55;7.70;44.90
2897;DHT22;1458;49.728;9.228;2023-04-03T11:48:49;8.00;45.80
2897;DHT22;1458;49.728;9.228;2023-04-03T11:51:39;8.10;42.60
2897;DHT22;1458;49.728;9.228;2023-04-03T11:54:36;8.00;44.10
2897;DHT22;1458;49.728;9.228;2023-04-03T12:00:52;7.30;42.70
2897;DHT22;1458;49.728;9.228;2023-04-03T12:06:58;7.20;42.30
2897;DHT22;1458;49.728;9.228;2023-04-03T12:12:58;7.20;40.20
2897;DHT22;1458;49.728;9.228;2023-04-03T12:18:41;7.30;39.90
2897;DHT22;1458;49.728;9.228;2023-04-03T12:21:11;7.30;39.10
2897;DHT22;1458;49.728;9.228;2023-04-03T12:23:59;7.40;37.50
2897;DHT22;1458;49.728;9.228;2023-04-03T12:26:34;7.40;37.20
2897;DHT22;1458;49.728;9.228;2023-04-03T12:29:14;7.50;41.80
2897;DHT22;1458;49.728;9.228;2023-04-03T12:31:56;7.50;39.50
2897;DHT22;1458;49.728;9.228;2023-04-03T12:34:52;7.70;36.70
2897;DHT22;1458;49.728;9.228;2023-04-03T12:37:39;7.70;39.00
2897;DHT22;1458;49.728;9.228;2023-04-03T12:40:20;7.80;37.40
2897;DHT22;1458;49.728;9.228;2023-04-03T12:43:05;8.00;37.70
2897;DHT22;1458;49.728;9.228;2023-04-03T12:45:46;7.90;35.40
2897;DHT22;1458;49.728;9.228;2023-04-03T12:48:22;8.00;36.20
2897;DHT22;1458;49.728;9.228;2023-04-03T12:50:53;7.90;36.40
2897;DHT22;1458;49.728;9.228;2023-04-03T12:53:24;7.90;36.20
2897;DHT22;1458;49.728;9.228;2023-04-03T12:55:54;8.20;39.60
2897;DHT22;1458;49.728;9.228;2023-04-03T12:58:24;8.40;35.20
2897;DHT22;1458;49.728;9.228;2023-04-03T13:01:01;8.20;35.50
2897;DHT22;1458;49.728;9.228;2023-04-03T13:03:30;7.90;38.90
2897;DHT22;1458;49.728;9.228;2023-04-03T13:06:00;7.70;34.70
2897;DHT22;1458;49.728;9.228;2023-04-03T13:08:29;7.40;37.10
2897;DHT22;1458;49.728;9.228;2023-04-03T13:11:02;7.50;36.80
2897;DHT22;1458;49.728;9.228;2023-04-03T13:13:30;7.70;46.00
2897;DHT22;1458;49.728;9.228;2023-04-03T13:15:58;7.90;35.30
2897;DHT22;1458;49.728;9.228;2023-04-03T13:18:30;7.80;34.90
2897;DHT22;1458;49.728;9.228;2023-04-03T13:21:03;7.80;40.80
2897;DHT22;1458;49.728;9.228;2023-04-03T13:23:35;7.90;34.80
2897;DHT22;1458;49.728;9.228;2023-04-03T13:26:04;7.70;33.40
2897;DHT22;1458;49.728;9.228;2023-04-03T13:28:33;7.60;32.00
2897;DHT22;1458;49.728;9.228;2023-04-03T13:31:08;7.70;31.00
2897;DHT22;1458;49.728;9.228;2023-04-03T13:33:54;7.80;30.40
2897;DHT22;1458;49.728;9.228;2023-04-03T13:36:29;7.90;32.10
2897;DHT22;1458;49.728;9.228;2023-04-03T13:39:00;8.00;33.30
2897;DHT22;1458;49.728;9.228;2023-04-03T13:41:31;8.10;32.20
2897;DHT22;1458;49.728;9.228;2023-04-03T13:44:25;7.90;32.10
2897;DHT22;1458;49.728;9.228;2023-04-03T13:46:56;8.00;33.70
2897;DHT22;1458;49.728;9.228;2023-04-03T13:49:33;8.20;32.30
2897;DHT22;1458;49.728;9.228;2023-04-03T13:52:17;8.30;34.30
2897;DHT22;1458;49.728;9.228;2023-04-03T13:54:53;8.20;32.40
2897;DHT22;1458;49.728;9.228;2023-04-03T13:57:23;8.30;30.40
2897;DHT22;1458;49.728;9.228;2023-04-03T13:59:51;8.30;31.30
2897;DHT22;1458;49.728;9.228;2023-04-03T14:02:21;8.20;31.10
2897;DHT22;1458;49.728;9.228;2023-04-03T14:04:54;8.30;30.80
2897;DHT22;1458;49.728;9.228;2023-04-03T14:07:28;8.30;31.20
2897;DHT22;1458;49.728;9.228;2023-04-03T14:09:56;8.20;32.40
2897;DHT22;1458;49.728;9.228;2023-04-03T14:12:28;8.20;30.70
2897;DHT22;1458;49.728;9.228;2023-04-03T14:14:59;8.00;29.40
2897;DHT22;1458;49.728;9.228;2023-04-03T14:17:28;7.90;29.60
2897;DHT22;1458;49.728;9.228;2023-04-03T14:19:58;7.90;29.60
2897;DHT22;1458;49.728;9.228;2023-04-03T14:22:29;7.80;30.50
2897;DHT22;1458;49.728;9.228;2023-04-03T14:24:58;7.90;31.50
2897;DHT22;1458;49.728;9.228;2023-04-03T14:27:28;8.00;29.70
2897;DHT22;1458;49.728;9.228;2023-04-03T14:29:58;8.10;33.10
2897;DHT22;1458;49.728;9.228;2023-04-03T14:32:26;8.00;28.80
2897;DHT22;1458;49.728;9.228;2023-04-03T14:34:54;8.00;32.20
2897;DHT22;1458;49.728;9.228;2023-04-03T14:37:25;8.00;29.40
2897;DHT22;1458;49.728;9.228;2023-04-03T14:39:56;8.20;31.00
2897;DHT22;1458;49.728;9.228;2023-04-03T14:42:27;8.10;33.30
2897;DHT22;1458;49.728;9.228;2023-04-03T14:44:56;8.20;29.80
2897;DHT22;1458;49.728;9.228;2023-04-03T14:47:26;8.10;30.20
2897;DHT22;1458;49.728;9.228;2023-04-03T14:49:55;8.20;29.00
2897;DHT22;1458;49.728;9.228;2023-04-03T14:52:26;8.20;30.10
2897;DHT22;1458;49.728;9.228;2023-04-03T14:54:55;8.00;30.00
2897;DHT22;1458;49.728;9.228;2023-04-03T14:57:24;8.20;29.70
2897;DHT22;1458;49.728;9.228;2023-04-03T14:59:53;8.20;31.30
2897;DHT22;1458;49.728;9.228;2023-04-03T15:02:29;8.20;32.40
2897;DHT22;1458;49.728;9.228;2023-04-03T15:04:58;8.10;29.00
2897;DHT22;1458;49.728;9.228;2023-04-03T15:07:30;8.00;29.20
2897;DHT22;1458;49.728;9.228;2023-04-03T15:10:03;8.00;29.50
2897;DHT22;1458;49.728;9.228;2023-04-03T15:12:36;8.00;29.60
2897;DHT22;1458;49.728;9.228;2023-04-03T15:15:04;8.00;29.40
2897;DHT22;1458;49.728;9.228;2023-04-03T15:17:34;8.00;29.30
2897;DHT22;1458;49.728;9.228;2023-04-03T15:20:03;8.00;28.00
2897;DHT22;1458;49.728;9.228;2023-04-03T15:22:34;8.00;29.80
2897;DHT22;1458;49.728;9.228;2023-04-03T15:25:01;8.00;28.60
2897;DHT22;1458;49.728;9.228;2023-04-03T15:27:29;8.00;29.20
2897;DHT22;1458;49.728;9.228;2023-04-03T15:29:56;8.10;27.40
2897;DHT22;1458;49.728;9.228;2023-04-03T15:32:24;8.10;26.60
2897;DHT22;1458;49.728;9.228;2023-04-03T15:34:51;8.10;26.80
2897;DHT22;1458;49.728;9.228;2023-04-03T15:37:21;8.00;27.20
2897;DHT22;1458;49.728;9.228;2023-04-03T15:39:49;7.90;27.60
2897;DHT22;1458;49.728;9.228;2023-04-03T15:42:17;7.90;28.70
2897;DHT22;1458;49.728;9.228;2023-04-03T15:44:45;8.00;28.50
2897;DHT22;1458;49.728;9.228;2023-04-03T15:47:13;8.00;30.00
2897;DHT22;1458;49.728;9.228;2023-04-03T15:49:40;8.10;28.60
2897;DHT22;1458;49.728;9.228;2023-04-03T15:52:08;8.10;29.80
2897;DHT22;1458;49.728;9.228;2023-04-03T15:54:36;8.10;30.30
2897;DHT22;1458;49.728;9.228;2023-04-03T15:57:06;8.00;28.30
2897;DHT22;1458;49.728;9.228;2023-04-03T15:59:33;7.90;28.60
2897;DHT22;1458;49.728;9.228;2023-04-03T16:02:01;7.90;27.90
2897;DHT22;1458;49.728;9.228;2023-04-03T16:04:32;7.90;28.80
2897;DHT22;1458;49.728;9.228;2023-04-03T16:07:01;8.00;28.90
2897;DHT22;1458;49.728;9.228;2023-04-03T16:09:29;7.90;28.50
2897;DHT22;1458;49.728;9.228;2023-04-03T16:11:56;7.80;28.20
2897;DHT22;1458;49.728;9.228;2023-04-03T16:14:29;7.80;28.80
2897;DHT22;1458;49.728;9.228;2023-04-03T16:16:57;7.80;29.80
2897;DHT22;1458;49.728;9.228;2023-04-03T16:19:25;7.80;29.50
2897;DHT22;1458;49.728;9.228;2023-04-03T16:21:53;7.70;30.50
2897;DHT22;1458;49.728;9.228;2023-04-03T16:24:21;7.80;27.70
2897;DHT22;1458;49.728;9.228;2023-04-03T16:26:48;7.70;28.10
2897;DHT22;1458;49.728;9.228;2023-04-03T16:29:16;7.70;27.80
2897;DHT22;1458;49.728;9.228;2023-04-03T16:31:45;7.60;27.80
2897;DHT22;1458;49.728;9.228;2023-04-03T16:34:13;7.40;29.90
2897;DHT22;1458;49.728;9.228;2023-04-03T16:36:41;7.60;30.60
2897;DHT22;1458;49.728;9.228;2023-04-03T16:39:09;7.50;31.60
2897;DHT22;1458;49.728;9.228;2023-04-03T16:41:36;7.50;29.10
2897;DHT22;1458;49.728;9.228;2023-04-03T16:44:04;7.50;30.10
2897;DHT22;1458;49.728;9.228;2023-04-03T16:46:33;7.40;31.00
2897;DHT22;1458;49.728;9.228;2023-04-03T16:49:02;7.40;29.80
2897;DHT22;1458;49.728;9.228;2023-04-03T16:51:30;7.40;29.60
2897;DHT22;1458;49.728;9.228;2023-04-03T16:53:58;7.30;30.20
2897;DHT22;1458;49.728;9.228;2023-04-03T16:56:26;7.40;33.20
2897;DHT22;1458;49.728;9.228;2023-04-03T16:58:54;7.40;31.70